createdAt,value
2022-08-31T00:00:32.388Z,371.20
2022-08-31T00:05:39.565Z,371.22
2022-08-31T00:10:47.214Z,371.17
2022-08-31T00:15:53.942Z,370.99
2022-08-31T00:21:01.121Z,371.16
2022-08-31T00:26:08.312Z,370.79
2022-08-31T00:31:15.604Z,371.23
2022-08-31T00:36:22.778Z,371.14
2022-08-31T00:41:29.965Z,371.73
2022-08-31T00:46:37.171Z,372.26
2022-08-31T00:51:44.360Z,371.93
2022-08-31T00:56:51.548Z,372.12
2022-08-31T01:01:58.900Z,372.12
2022-08-31T01:07:06.044Z,373.05
2022-08-31T01:12:13.296Z,372.79
2022-08-31T01:17:20.507Z,372.37
2022-08-31T01:22:27.767Z,372.26
2022-08-31T01:27:35.047Z,373.15
2022-08-31T01:32:42.257Z,373.70
2022-08-31T01:37:49.571Z,373.35
2022-08-31T01:42:56.832Z,372.78
2022-08-31T01:48:04.065Z,373.30
2022-08-31T01:53:11.314Z,372.90
2022-08-31T01:58:18.465Z,373.28
2022-08-31T02:03:25.667Z,374.08
2022-08-31T02:08:32.932Z,373.61
2022-08-31T02:13:40.104Z,373.52
2022-08-31T02:18:47.277Z,373.23
2022-08-31T02:23:54.469Z,372.65
2022-08-31T02:29:01.656Z,372.16
2022-08-31T02:34:08.847Z,371.87
2022-08-31T02:39:16.031Z,371.40
2022-08-31T02:44:23.199Z,371.57
2022-08-31T02:49:30.396Z,370.99
2022-08-31T02:54:37.587Z,370.70
2022-08-31T02:59:44.766Z,370.07
2022-08-31T03:04:51.943Z,370.02
2022-08-31T03:09:59.134Z,369.11
2022-08-31T03:15:06.316Z,369.04
2022-08-31T03:20:13.505Z,369.13
2022-08-31T03:25:20.719Z,368.48
2022-08-31T03:30:29.850Z,368.26
2022-08-31T03:35:35.175Z,368.64
2022-08-31T03:40:42.431Z,367.57
2022-08-31T03:45:49.678Z,366.99
2022-08-31T03:50:56.748Z,366.91
2022-08-31T03:56:04.025Z,367.28
2022-08-31T04:01:11.337Z,366.54
2022-08-31T04:06:18.470Z,366.34
2022-08-31T04:11:32.748Z,366.16
2022-08-31T04:16:32.892Z,366.57
2022-08-31T04:21:40.144Z,366.51
2022-08-31T04:26:47.315Z,366.64
2022-08-31T04:31:54.494Z,366.99
2022-08-31T04:37:01.700Z,367.14
2022-08-31T04:42:08.856Z,367.09
2022-08-31T04:47:16.059Z,366.93
2022-08-31T04:52:23.936Z,366.66
2022-08-31T04:57:30.445Z,366.34
2022-08-31T05:02:37.723Z,366.39
2022-08-31T05:07:44.921Z,365.84
2022-08-31T05:12:52.129Z,365.34
2022-08-31T05:17:59.264Z,364.93
2022-08-31T05:23:06.459Z,364.95
2022-08-31T05:28:13.638Z,364.74
2022-08-31T05:33:20.829Z,364.45
2022-08-31T05:38:27.991Z,363.84
2022-08-31T05:43:35.222Z,364.00
2022-08-31T05:48:42.392Z,363.09
2022-08-31T05:53:49.583Z,362.89
2022-08-31T05:58:56.875Z,363.12
2022-08-31T06:04:04.144Z,363.51
2022-08-31T06:09:11.319Z,363.61
2022-08-31T06:14:18.505Z,363.73
2022-08-31T06:19:25.804Z,363.39
2022-08-31T06:24:33.002Z,363.14
2022-08-31T06:29:40.158Z,363.28
2022-08-31T06:34:47.345Z,363.21
2022-08-31T06:39:54.540Z,363.13
2022-08-31T06:45:01.782Z,362.06
2022-08-31T06:50:08.995Z,361.93
2022-08-31T06:55:16.185Z,361.72
2022-08-31T07:00:23.365Z,361.94
2022-08-31T07:05:30.549Z,361.59
2022-08-31T07:10:37.744Z,361.94
2022-08-31T07:15:44.938Z,361.71
2022-08-31T07:20:52.124Z,362.04
2022-08-31T07:25:59.303Z,361.66
2022-08-31T07:31:06.614Z,361.36
2022-08-31T07:36:13.785Z,361.47
2022-08-31T07:41:21.009Z,361.06
2022-08-31T07:46:28.320Z,360.00
2022-08-31T07:51:35.450Z,360.32
2022-08-31T07:56:42.636Z,360.22
2022-08-31T08:01:50.046Z,360.33
2022-08-31T08:06:57.187Z,359.31
2022-08-31T08:12:04.379Z,359.03
2022-08-31T08:17:11.569Z,358.83
2022-08-31T08:22:35.705Z,358.37
2022-08-31T08:27:26.021Z,357.63
2022-08-31T08:32:33.313Z,356.77
2022-08-31T08:37:57.363Z,356.34
2022-08-31T08:42:47.792Z,356.47
2022-08-31T08:47:55.071Z,356.58
2022-08-31T08:53:02.383Z,355.93
2022-08-31T08:58:09.652Z,356.20
2022-08-31T09:03:16.856Z,355.39
2022-08-31T09:08:24.124Z,355.84
2022-08-31T09:13:31.302Z,355.63
2022-08-31T09:18:38.632Z,355.98
2022-08-31T09:23:45.929Z,356.00
2022-08-31T09:28:53.200Z,356.01
2022-08-31T09:34:00.486Z,355.81
2022-08-31T09:39:07.707Z,355.58
2022-08-31T09:44:15.733Z,355.84
2022-08-31T09:49:22.921Z,355.96
2022-08-31T09:54:30.212Z,355.59
2022-08-31T09:59:37.485Z,355.65
2022-08-31T10:04:44.802Z,355.11
2022-08-31T10:09:57.647Z,355.25
2022-08-31T10:14:59.227Z,355.25
2022-08-31T10:20:06.396Z,355.31
2022-08-31T10:25:13.587Z,355.41
2022-08-31T10:30:20.787Z,355.84
2022-08-31T10:35:27.953Z,355.85
2022-08-31T10:40:35.234Z,356.30
2022-08-31T10:45:42.334Z,356.38
2022-08-31T10:50:49.497Z,356.07
2022-08-31T10:55:56.704Z,355.92
2022-08-31T11:01:03.947Z,356.12
2022-08-31T11:06:11.169Z,356.39
2022-08-31T11:11:18.376Z,355.87
2022-08-31T11:16:25.571Z,356.19
2022-08-31T11:21:32.843Z,356.99
2022-08-31T11:26:40.023Z,357.36
2022-08-31T11:31:47.446Z,357.28
2022-08-31T11:36:54.745Z,358.10
2022-08-31T11:42:01.660Z,358.49
2022-08-31T11:47:08.892Z,358.11
2022-08-31T11:52:16.160Z,359.10
2022-08-31T11:57:23.330Z,358.65
2022-08-31T12:02:30.625Z,358.96
2022-08-31T12:07:37.676Z,359.17
2022-08-31T12:12:44.894Z,359.14
2022-08-31T12:17:52.295Z,358.75
2022-08-31T12:23:01.843Z,358.91
2022-08-31T12:28:09.055Z,359.06
2022-08-31T12:33:16.333Z,358.87
2022-08-31T12:38:23.531Z,358.55
2022-08-31T12:43:30.717Z,358.73
2022-08-31T12:48:37.972Z,359.02
2022-08-31T12:53:45.171Z,358.77
2022-08-31T12:58:52.359Z,358.49
2022-08-31T13:03:59.543Z,359.16
2022-08-31T13:09:06.721Z,359.28
2022-08-31T13:14:13.997Z,359.09
2022-08-31T13:19:21.189Z,359.52
2022-08-31T13:24:28.387Z,359.13
2022-08-31T13:29:35.682Z,359.97
2022-08-31T13:34:42.875Z,360.25
2022-08-31T13:39:50.130Z,360.13
2022-08-31T13:44:57.338Z,360.25
2022-08-31T13:50:04.534Z,360.61
2022-08-31T13:55:11.813Z,360.96
2022-08-31T14:00:19.046Z,360.33
2022-08-31T14:05:26.454Z,360.57
2022-08-31T14:10:33.650Z,361.35
2022-08-31T14:15:40.964Z,361.77
2022-08-31T14:21:16.844Z,361.85
2022-08-31T14:25:55.397Z,362.08
2022-08-31T14:31:02.677Z,362.29
2022-08-31T14:36:09.884Z,361.88
2022-08-31T14:41:17.045Z,361.85
2022-08-31T14:46:24.249Z,361.72
2022-08-31T14:51:31.437Z,362.23
2022-08-31T14:56:38.613Z,362.29
2022-08-31T15:01:45.850Z,362.49
2022-08-31T15:06:52.987Z,363.03
2022-08-31T15:12:00.238Z,363.32
2022-08-31T15:17:07.445Z,363.13
2022-08-31T15:22:14.630Z,363.48
2022-08-31T15:27:21.816Z,363.65
2022-08-31T15:32:29.021Z,364.09
2022-08-31T15:37:36.177Z,363.59
2022-08-31T15:42:43.381Z,364.23
2022-08-31T15:47:50.565Z,364.29
2022-08-31T15:52:57.752Z,364.46
2022-08-31T15:58:04.946Z,365.16
2022-08-31T16:03:12.131Z,365.12
2022-08-31T16:08:19.529Z,365.32
2022-08-31T16:13:26.479Z,365.84
2022-08-31T16:18:33.701Z,365.77
2022-08-31T16:23:40.971Z,365.91
2022-08-31T16:28:48.151Z,366.68
2022-08-31T16:33:55.343Z,366.54
2022-08-31T16:39:02.516Z,366.47
2022-08-31T16:44:19.634Z,366.34
2022-08-31T16:49:16.896Z,367.16
2022-08-31T16:54:24.090Z,366.76
2022-08-31T16:59:31.260Z,367.23
2022-08-31T17:04:52.197Z,367.13
2022-08-31T17:09:45.726Z,366.75
2022-08-31T17:14:53.013Z,366.94
2022-08-31T17:20:00.101Z,366.84
2022-08-31T17:25:07.279Z,367.08
2022-08-31T17:30:14.492Z,366.33
2022-08-31T17:35:21.750Z,366.96
2022-08-31T17:40:29.069Z,367.15
2022-08-31T17:45:36.227Z,366.56
2022-08-31T17:50:43.422Z,365.49
2022-08-31T17:55:50.711Z,365.61
2022-08-31T18:00:58.042Z,365.99
2022-08-31T18:06:05.169Z,366.57
2022-08-31T18:11:12.348Z,366.91
2022-08-31T18:16:19.613Z,365.87
2022-08-31T18:21:26.796Z,366.08
2022-08-31T18:26:33.994Z,366.10
2022-08-31T18:31:41.276Z,365.20
2022-08-31T18:36:48.386Z,364.63
2022-08-31T18:41:55.684Z,364.60
2022-08-31T18:47:02.880Z,364.03
2022-08-31T18:52:10.158Z,363.60
2022-08-31T18:57:17.635Z,363.27
2022-08-31T19:02:25.267Z,363.25
2022-08-31T19:07:32.453Z,362.81
2022-08-31T19:12:39.732Z,362.59
2022-08-31T19:17:47.158Z,362.14
2022-08-31T19:22:54.481Z,362.11
2022-08-31T19:28:01.892Z,361.99
2022-08-31T19:33:09.218Z,362.39
2022-08-31T19:38:16.702Z,362.18
2022-08-31T19:48:31.921Z,362.15
2022-08-31T19:53:40.472Z,362.25
2022-08-31T19:58:47.041Z,362.31
2022-08-31T20:03:54.259Z,363.12
2022-08-31T20:09:01.529Z,363.51
2022-08-31T20:14:08.803Z,363.17
2022-08-31T20:19:16.011Z,363.08
2022-08-31T20:24:23.302Z,363.37
2022-08-31T20:29:30.489Z,363.13
2022-08-31T20:34:37.792Z,363.88
2022-08-31T20:39:45.061Z,363.81
2022-08-31T20:44:52.343Z,364.05
2022-08-31T20:49:59.651Z,364.40
2022-08-31T20:55:06.898Z,364.76
2022-08-31T21:00:14.144Z,365.01
2022-08-31T21:05:38.744Z,364.20
2022-08-31T21:10:37.595Z,364.52
2022-08-31T21:15:35.973Z,364.30
2022-08-31T21:20:43.006Z,363.82
2022-08-31T21:25:50.209Z,363.34
2022-08-31T21:30:57.549Z,363.56
2022-08-31T21:36:04.683Z,363.80
2022-08-31T21:41:11.972Z,363.99
2022-08-31T21:46:19.192Z,364.38
2022-08-31T21:51:26.331Z,363.89
2022-08-31T21:56:33.499Z,363.40
2022-08-31T22:01:40.755Z,363.74
2022-08-31T22:06:47.875Z,363.45
2022-08-31T22:11:55.057Z,364.18
2022-08-31T22:17:02.184Z,364.36
2022-08-31T22:22:12.092Z,364.20
2022-08-31T22:27:16.605Z,364.53
2022-08-31T22:32:23.843Z,364.68
2022-08-31T22:37:31.080Z,364.88
2022-08-31T22:42:38.271Z,365.00
2022-08-31T22:47:50.062Z,365.48
2022-08-31T22:52:52.631Z,365.23
2022-08-31T22:57:59.831Z,365.36
2022-08-31T23:03:07.001Z,365.82
2022-08-31T23:08:14.193Z,365.64
2022-08-31T23:13:21.368Z,365.50
2022-08-31T23:18:28.664Z,366.16
2022-08-31T23:23:35.855Z,365.93
2022-08-31T23:28:43.041Z,366.00
2022-08-31T23:33:50.225Z,366.78
2022-08-31T23:38:57.461Z,367.01
2022-08-31T23:44:04.692Z,367.07
2022-08-31T23:49:11.874Z,367.45
2022-08-31T23:54:19.066Z,367.13
2022-08-31T23:59:26.246Z,367.47
